createdAt,value
2019-03-13T00:02:29.591Z,79.10
2019-03-13T00:04:56.871Z,79.70
2019-03-13T00:07:23.780Z,78.70
2019-03-13T00:09:50.790Z,78.10
2019-03-13T00:12:17.856Z,79.40
2019-03-13T00:14:44.961Z,78.90
2019-03-13T00:17:11.886Z,79.20
2019-03-13T00:19:39.129Z,79.00
2019-03-13T00:22:09.890Z,78.40
2019-03-13T00:24:37.009Z,78.10
2019-03-13T00:27:04.090Z,78.00
2019-03-13T00:29:31.172Z,75.80
2019-03-13T00:31:59.724Z,75.80
2019-03-13T00:34:26.869Z,75.70
2019-03-13T00:36:53.874Z,74.10
2019-03-13T00:39:20.906Z,74.40
2019-03-13T00:41:47.883Z,73.80
2019-03-13T00:44:14.899Z,72.70
2019-03-13T00:46:41.978Z,72.10
2019-03-13T00:49:09.105Z,72.80
2019-03-13T00:51:37.076Z,73.00
2019-03-13T00:54:04.225Z,73.10
2019-03-13T00:56:31.223Z,73.80
2019-03-13T00:58:58.308Z,74.60
2019-03-13T01:01:27.237Z,75.00
2019-03-13T01:03:56.228Z,74.70
2019-03-13T01:06:25.220Z,75.20
2019-03-13T01:08:52.332Z,75.50
2019-03-13T01:11:19.399Z,73.70
2019-03-13T01:13:46.478Z,74.60
2019-03-13T01:16:13.664Z,74.00
2019-03-13T01:18:40.700Z,73.80
2019-03-13T01:21:07.795Z,73.30
2019-03-13T01:23:34.861Z,73.40
2019-03-13T01:26:01.910Z,73.50
2019-03-13T01:28:28.989Z,72.10
2019-03-13T01:31:00.820Z,72.70
2019-03-13T01:33:28.030Z,72.70
2019-03-13T01:35:57.013Z,71.80
2019-03-13T01:38:24.077Z,71.00
2019-03-13T01:40:51.076Z,70.80
2019-03-13T01:43:18.208Z,70.60
2019-03-13T01:45:45.265Z,69.60
2019-03-13T01:48:12.328Z,68.70
2019-03-13T01:50:39.429Z,68.70
2019-03-13T01:53:06.467Z,68.10
2019-03-13T01:55:33.369Z,67.40
2019-03-13T01:58:00.337Z,67.30
2019-03-13T02:00:27.503Z,67.30
2019-03-13T02:02:54.641Z,66.90
2019-03-13T02:05:21.629Z,66.00
2019-03-13T02:07:48.676Z,65.90
2019-03-13T02:10:16.850Z,65.80
2019-03-13T02:12:43.844Z,65.90
2019-03-13T02:15:11.265Z,66.00
2019-03-13T02:17:38.216Z,65.90
2019-03-13T02:20:05.454Z,65.90
2019-03-13T02:22:32.574Z,66.00
2019-03-13T02:24:59.643Z,66.00
2019-03-13T02:27:26.693Z,65.10
2019-03-13T02:29:53.868Z,64.80
2019-03-13T02:32:21.118Z,64.60
2019-03-13T02:34:48.243Z,64.90
2019-03-13T02:37:15.280Z,64.70
2019-03-13T02:39:42.247Z,64.40
2019-03-13T02:42:09.180Z,63.80
2019-03-13T02:44:36.263Z,64.00
2019-03-13T02:47:03.386Z,64.10
2019-03-13T02:49:30.480Z,63.70
2019-03-13T02:51:57.541Z,63.80
2019-03-13T02:54:24.646Z,63.60
2019-03-13T02:56:51.742Z,63.10
2019-03-13T02:59:18.910Z,63.30
2019-03-13T03:01:51.098Z,63.30
2019-03-13T03:04:18.048Z,63.80
2019-03-13T03:06:45.115Z,63.70
2019-03-13T03:09:12.167Z,63.90
2019-03-13T03:11:39.184Z,64.10
2019-03-13T03:14:06.199Z,64.30
2019-03-13T03:16:33.271Z,64.50
2019-03-13T03:19:00.253Z,64.60
2019-03-13T03:21:27.242Z,64.50
2019-03-13T03:23:54.421Z,64.80
2019-03-13T03:26:21.510Z,64.70
2019-03-13T03:28:48.414Z,65.20
2019-03-13T03:31:15.436Z,65.30
2019-03-13T03:33:56.603Z,65.20
2019-03-13T03:36:23.691Z,65.70
2019-03-13T03:38:50.763Z,66.00
2019-03-13T03:41:17.781Z,65.00
2019-03-13T03:43:44.791Z,65.80
2019-03-13T03:46:11.837Z,65.80
2019-03-13T03:48:38.994Z,65.80
2019-03-13T03:51:06.009Z,65.70
2019-03-13T03:53:33.086Z,65.70
2019-03-13T03:56:00.207Z,65.70
2019-03-13T03:58:29.279Z,65.70
2019-03-13T04:03:24.594Z,65.50
2019-03-13T04:05:51.604Z,66.60
2019-03-13T04:08:18.579Z,66.10
2019-03-13T04:10:45.974Z,66.60
2019-03-13T04:13:13.372Z,67.40
2019-03-13T04:15:40.433Z,67.60
2019-03-13T04:18:07.443Z,67.70
2019-03-13T04:20:34.532Z,68.20
2019-03-13T04:23:01.574Z,68.40
2019-03-13T04:25:33.135Z,68.50
2019-03-13T04:28:00.195Z,68.90
2019-03-13T04:30:27.390Z,69.10
2019-03-13T04:32:54.453Z,69.40
2019-03-13T04:35:21.427Z,70.30
2019-03-13T04:37:48.554Z,70.20
2019-03-13T04:40:15.513Z,70.20
2019-03-13T04:42:42.563Z,70.30
2019-03-13T04:45:09.925Z,69.60
2019-03-13T04:47:36.878Z,69.90
2019-03-13T04:50:04.029Z,70.20
2019-03-13T04:52:30.976Z,70.50
2019-03-13T04:54:57.956Z,71.30
2019-03-13T04:57:25.366Z,71.30
2019-03-13T04:59:52.424Z,71.60
2019-03-13T05:02:19.405Z,72.10
2019-03-13T05:04:46.378Z,71.90
2019-03-13T05:07:13.375Z,71.90
2019-03-13T05:09:40.435Z,71.60
2019-03-13T05:12:07.337Z,71.90
2019-03-13T05:14:35.468Z,72.20
2019-03-13T05:17:02.378Z,72.00
2019-03-13T05:19:29.535Z,71.60
2019-03-13T05:21:56.496Z,71.40
2019-03-13T05:24:23.594Z,71.00
2019-03-13T05:26:50.584Z,71.20
2019-03-13T05:29:17.675Z,70.90
2019-03-13T05:31:47.809Z,71.40
2019-03-13T05:34:14.925Z,71.10
2019-03-13T05:36:41.894Z,71.10
2019-03-13T05:39:08.943Z,71.50
2019-03-13T05:41:36.009Z,71.80
2019-03-13T05:44:03.016Z,71.80
2019-03-13T05:46:30.327Z,71.70
2019-03-13T05:48:57.592Z,72.30
2019-03-13T05:51:24.520Z,71.50
2019-03-13T05:53:51.550Z,71.50
2019-03-13T05:56:18.625Z,71.10
2019-03-13T05:58:45.568Z,70.60
2019-03-13T06:01:12.476Z,70.00
2019-03-13T06:03:39.528Z,70.90
2019-03-13T06:06:06.589Z,70.70
2019-03-13T06:08:33.651Z,70.50
2019-03-13T06:11:00.552Z,70.60
2019-03-13T06:13:27.630Z,70.60
2019-03-13T06:15:54.777Z,70.30
2019-03-13T06:18:21.841Z,70.30
2019-03-13T06:20:48.992Z,70.20
2019-03-13T06:23:16.144Z,70.80
2019-03-13T06:25:43.032Z,70.10
2019-03-13T06:28:10.146Z,70.00
2019-03-13T06:30:37.231Z,70.10
2019-03-13T06:33:04.284Z,70.30
2019-03-13T06:35:31.385Z,70.00
2019-03-13T06:37:58.360Z,69.80
2019-03-13T06:40:25.480Z,70.20
2019-03-13T06:42:52.463Z,69.90
2019-03-13T06:45:19.509Z,70.20
2019-03-13T06:47:46.460Z,68.70
2019-03-13T06:50:15.246Z,68.10
2019-03-13T06:52:42.254Z,67.60
2019-03-13T06:55:09.354Z,66.80
2019-03-13T06:57:36.483Z,67.10
2019-03-13T07:00:15.501Z,67.20
2019-03-13T07:02:44.403Z,67.10
2019-03-13T07:05:15.588Z,67.90
2019-03-13T07:07:50.339Z,68.20
2019-03-13T07:10:31.287Z,68.40
2019-03-13T07:13:03.124Z,69.70
2019-03-13T07:15:31.987Z,69.70
2019-03-13T07:18:00.799Z,69.50
2019-03-13T07:20:29.939Z,69.30
2019-03-13T07:23:10.902Z,69.40
2019-03-13T07:25:56.820Z,69.10
2019-03-13T07:28:34.933Z,69.50
2019-03-13T07:31:20.587Z,69.00
2019-03-13T07:33:52.464Z,69.20
2019-03-13T07:36:24.152Z,68.70
2019-03-13T07:38:58.947Z,68.80
2019-03-13T07:41:27.920Z,68.10
2019-03-13T07:44:05.924Z,67.50
2019-03-13T07:46:43.706Z,67.80
2019-03-13T07:49:15.624Z,67.20
2019-03-13T07:51:59.941Z,67.20
2019-03-13T07:54:29.058Z,66.90
2019-03-13T07:56:57.945Z,66.90
2019-03-13T07:59:42.240Z,66.90
2019-03-13T08:02:27.829Z,66.90
2019-03-13T08:04:59.312Z,66.40
2019-03-13T08:07:28.335Z,65.90
2019-03-13T08:10:03.073Z,65.50
2019-03-13T08:12:44.334Z,65.60
2019-03-13T08:15:22.424Z,66.10
2019-03-13T08:17:54.124Z,66.20
2019-03-13T08:20:22.913Z,66.30
2019-03-13T08:22:55.085Z,66.80
2019-03-13T08:25:29.951Z,66.90
2019-03-13T08:28:02.131Z,66.80
2019-03-13T08:30:39.916Z,65.90
2019-03-13T08:33:08.968Z,65.60
2019-03-13T08:35:55.989Z,65.30
2019-03-13T08:38:24.952Z,65.30
2019-03-13T08:40:59.818Z,66.30
2019-03-13T08:43:28.765Z,65.60
2019-03-13T08:46:00.127Z,65.20
2019-03-13T08:48:34.962Z,65.80
2019-03-13T08:51:06.819Z,64.40
2019-03-13T08:53:48.020Z,65.00
2019-03-13T08:56:17.098Z,65.60
2019-03-13T08:58:46.073Z,64.40
2019-03-13T09:01:23.558Z,64.70
2019-03-13T09:03:55.440Z,64.10
2019-03-13T09:06:24.545Z,64.40
2019-03-13T09:08:56.295Z,64.20
2019-03-13T09:11:28.011Z,64.20
2019-03-13T09:13:56.943Z,64.30
2019-03-13T09:16:29.012Z,64.00
2019-03-13T09:18:59.979Z,62.70
2019-03-13T09:21:33.631Z,63.20
2019-03-13T09:24:08.603Z,62.20
2019-03-13T09:26:40.544Z,62.30
2019-03-13T09:29:09.445Z,61.90
2019-03-13T09:31:54.937Z,61.50
2019-03-13T09:34:26.980Z,60.80
2019-03-13T09:37:10.617Z,61.30
2019-03-13T09:39:39.545Z,61.50
2019-03-13T09:42:08.605Z,61.30
2019-03-13T09:44:46.797Z,62.00
2019-03-13T09:47:24.376Z,61.50
2019-03-13T09:50:08.426Z,61.10
2019-03-13T09:52:54.151Z,61.00
2019-03-13T09:55:23.121Z,61.00
2019-03-13T09:57:52.011Z,61.80
2019-03-13T10:00:24.017Z,60.90
2019-03-13T10:03:07.744Z,60.90
2019-03-13T10:05:39.429Z,61.30
2019-03-13T10:08:17.367Z,61.80
2019-03-13T10:10:49.340Z,61.60
2019-03-13T10:13:34.834Z,61.00
2019-03-13T10:16:09.849Z,61.90
2019-03-13T10:18:38.824Z,61.10
2019-03-13T10:21:07.813Z,61.60
2019-03-13T10:23:36.728Z,61.70
2019-03-13T10:26:08.134Z,61.60
2019-03-13T10:28:37.083Z,61.80
2019-03-13T10:31:11.961Z,61.50
2019-03-13T10:33:56.026Z,61.80
2019-03-13T10:36:24.852Z,60.50
2019-03-13T10:39:06.011Z,60.40
2019-03-13T10:41:34.918Z,60.60
2019-03-13T10:44:09.823Z,60.30
2019-03-13T10:46:38.682Z,60.20
2019-03-13T10:49:13.250Z,60.00
2019-03-13T10:51:42.220Z,59.80
2019-03-13T10:54:13.748Z,59.90
2019-03-13T10:56:42.761Z,59.80
2019-03-13T10:59:20.813Z,59.00
2019-03-13T11:02:01.694Z,58.60
2019-03-13T11:04:30.533Z,58.20
2019-03-13T11:07:08.468Z,58.40
2019-03-13T11:09:37.282Z,58.10
2019-03-13T11:12:23.092Z,58.30
2019-03-13T11:14:51.888Z,58.50
2019-03-13T11:17:29.645Z,58.20
2019-03-13T11:20:13.682Z,58.50
2019-03-13T11:22:51.817Z,57.30
2019-03-13T11:25:26.821Z,58.00
2019-03-13T11:28:11.139Z,56.90
2019-03-13T11:30:56.349Z,56.20
2019-03-13T11:33:30.943Z,56.00
2019-03-13T11:36:09.604Z,55.30
2019-03-13T11:38:47.452Z,56.50
2019-03-13T11:41:22.488Z,56.10
2019-03-13T11:44:00.741Z,57.50
2019-03-13T11:46:48.264Z,56.90
2019-03-13T11:49:35.136Z,56.50
2019-03-13T11:52:07.057Z,55.90
2019-03-13T11:54:47.740Z,56.00
2019-03-13T11:57:22.494Z,55.70
2019-03-13T11:59:51.431Z,55.50
2019-03-13T12:02:23.390Z,54.10
2019-03-13T12:05:08.860Z,54.60
2019-03-13T12:07:54.265Z,54.60
2019-03-13T12:10:39.869Z,54.80
2019-03-13T12:13:11.781Z,55.00
2019-03-13T12:15:43.249Z,55.00
2019-03-13T12:18:15.435Z,56.20
2019-03-13T12:21:00.099Z,56.20
2019-03-13T12:23:31.885Z,56.70
2019-03-13T12:26:03.606Z,57.00
2019-03-13T12:28:32.668Z,56.60
2019-03-13T12:31:18.518Z,56.10
2019-03-13T12:33:47.449Z,55.60
2019-03-13T12:36:16.305Z,55.40
2019-03-13T12:38:54.446Z,56.10
2019-03-13T12:41:40.191Z,56.10
2019-03-13T12:44:26.012Z,56.50
2019-03-13T12:47:13.063Z,56.60
2019-03-13T12:49:42.000Z,57.00
2019-03-13T12:52:20.461Z,57.50
2019-03-13T12:54:51.900Z,57.50
2019-03-13T12:57:22.014Z,57.50
2019-03-13T12:59:53.705Z,57.60
2019-03-13T13:02:25.548Z,57.80
2019-03-13T13:04:54.387Z,57.70
2019-03-13T13:07:23.504Z,58.60
2019-03-13T13:09:55.368Z,59.00
2019-03-13T13:12:40.716Z,59.30
2019-03-13T13:15:26.300Z,57.60
2019-03-13T13:18:03.932Z,57.50
2019-03-13T13:20:30.973Z,57.50
2019-03-13T13:22:57.983Z,58.40
2019-03-13T13:25:25.066Z,57.50
2019-03-13T13:27:52.155Z,57.50
2019-03-13T13:30:19.340Z,58.00
2019-03-13T13:32:46.454Z,58.20
2019-03-13T13:35:13.456Z,58.00
2019-03-13T13:37:40.527Z,58.20
2019-03-13T13:40:07.913Z,58.30
2019-03-13T13:42:35.063Z,58.60
2019-03-13T13:45:02.216Z,58.50
2019-03-13T13:47:29.261Z,58.60
2019-03-13T13:49:59.966Z,58.00
2019-03-13T13:52:25.056Z,58.50
2019-03-13T13:54:52.076Z,59.80
2019-03-13T13:57:19.087Z,59.00
2019-03-13T13:59:46.313Z,59.90
2019-03-13T14:02:13.293Z,61.10
2019-03-13T14:04:40.344Z,61.90
2019-03-13T14:07:07.489Z,62.10
2019-03-13T14:09:34.486Z,62.60
2019-03-13T14:12:01.604Z,63.00
2019-03-13T14:14:28.622Z,64.30
2019-03-13T14:16:55.654Z,64.00
2019-03-13T14:19:24.381Z,63.50
2019-03-13T14:21:51.427Z,63.40
2019-03-13T14:24:18.379Z,62.90
2019-03-13T14:26:45.462Z,64.20
2019-03-13T14:29:13.820Z,64.90
2019-03-13T14:31:40.926Z,65.90
2019-03-13T14:34:07.984Z,66.40
2019-03-13T14:36:36.277Z,66.40
2019-03-13T14:39:06.175Z,66.30
2019-03-13T14:41:33.394Z,66.80
2019-03-13T14:44:00.575Z,66.50
2019-03-13T14:46:28.011Z,66.50
2019-03-13T14:48:55.271Z,65.30
2019-03-13T14:51:22.290Z,65.60
2019-03-13T14:53:49.251Z,65.90
2019-03-13T14:56:16.309Z,65.30
2019-03-13T14:58:43.400Z,65.90
2019-03-13T15:01:10.577Z,66.60
2019-03-13T15:03:37.559Z,66.00
2019-03-13T15:06:04.590Z,66.80
2019-03-13T15:08:31.594Z,66.50
2019-03-13T15:10:58.688Z,67.70
2019-03-13T15:13:25.620Z,67.70
2019-03-13T15:15:52.681Z,68.50
2019-03-13T15:18:19.674Z,68.70
2019-03-13T15:20:46.780Z,70.00
2019-03-13T15:23:13.880Z,71.00
2019-03-13T15:25:40.867Z,71.30
2019-03-13T15:28:07.951Z,72.40
2019-03-13T15:30:35.099Z,71.20
2019-03-13T15:33:02.065Z,71.50
2019-03-13T15:35:29.088Z,72.00
2019-03-13T15:37:56.059Z,72.80
2019-03-13T15:40:23.133Z,73.70
2019-03-13T15:42:50.277Z,74.80
2019-03-13T15:45:18.247Z,75.10
2019-03-13T15:47:45.277Z,75.70
2019-03-13T15:50:13.142Z,77.20
2019-03-13T15:52:40.122Z,77.10
2019-03-13T15:55:08.270Z,77.50
2019-03-13T15:57:35.284Z,77.50
2019-03-13T16:00:03.382Z,77.00
2019-03-13T16:02:30.361Z,77.00
2019-03-13T16:04:57.301Z,77.10
2019-03-13T16:07:24.315Z,76.90
2019-03-13T16:09:51.312Z,76.90
2019-03-13T16:12:18.464Z,77.40
2019-03-13T16:14:45.503Z,77.60
2019-03-13T16:17:12.481Z,77.20
2019-03-13T16:19:39.549Z,77.00
2019-03-13T16:22:07.723Z,76.90
2019-03-13T16:24:34.860Z,77.00
2019-03-13T16:27:02.044Z,76.90
2019-03-13T16:29:30.870Z,77.60
2019-03-13T16:31:58.073Z,77.80
2019-03-13T16:34:25.012Z,78.40
2019-03-13T16:36:52.093Z,78.20
2019-03-13T16:39:19.311Z,79.30
2019-03-13T16:41:46.329Z,80.10
2019-03-13T16:44:13.330Z,81.30
2019-03-13T16:46:40.417Z,80.90
2019-03-13T16:49:07.513Z,81.40
2019-03-13T16:51:34.559Z,82.10
2019-03-13T16:54:01.560Z,82.80
2019-03-13T16:56:28.507Z,83.50
2019-03-13T16:58:55.656Z,83.20
2019-03-13T17:01:22.713Z,83.70
2019-03-13T17:03:49.811Z,83.90
2019-03-13T17:06:16.897Z,84.10
2019-03-13T17:08:43.918Z,84.10
2019-03-13T17:11:10.980Z,84.00
2019-03-13T17:13:37.921Z,84.30
2019-03-13T17:16:04.999Z,85.30
2019-03-13T17:18:32.072Z,85.80
2019-03-13T17:20:59.198Z,85.60
2019-03-13T17:23:26.165Z,85.80
2019-03-13T17:25:53.171Z,85.80
2019-03-13T17:28:21.240Z,85.80
2019-03-13T17:30:48.439Z,85.80
2019-03-13T17:33:15.579Z,84.80
2019-03-13T17:35:42.661Z,84.90
2019-03-13T17:38:09.797Z,83.90
2019-03-13T17:40:37.671Z,84.60
2019-03-13T17:43:04.736Z,83.90
2019-03-13T17:45:31.793Z,83.70
2019-03-13T17:47:59.021Z,83.00
2019-03-13T17:50:26.057Z,82.70
2019-03-13T17:52:53.053Z,82.30
2019-03-13T17:55:20.240Z,81.30
2019-03-13T17:57:47.195Z,81.20
2019-03-13T18:00:17.068Z,81.10
2019-03-13T18:02:44.020Z,81.70
2019-03-13T18:05:11.265Z,82.90
2019-03-13T18:07:38.526Z,83.00
2019-03-13T18:10:09.628Z,82.90
2019-03-13T18:12:36.812Z,82.80
2019-03-13T18:15:04.829Z,83.50
2019-03-13T18:17:31.804Z,83.80
2019-03-13T18:19:58.970Z,83.90
2019-03-13T18:22:26.176Z,84.00
2019-03-13T18:24:53.284Z,83.20
2019-03-13T18:27:20.388Z,83.50
2019-03-13T18:29:47.739Z,84.00
2019-03-13T18:32:15.780Z,84.00
2019-03-13T18:34:43.161Z,85.30
2019-03-13T18:37:10.260Z,89.10
2019-03-13T18:39:37.343Z,88.00
2019-03-13T18:42:04.485Z,84.80
2019-03-13T18:44:31.479Z,87.20
2019-03-13T18:46:58.445Z,86.20
2019-03-13T18:49:26.264Z,85.30
2019-03-13T18:51:53.309Z,85.10
2019-03-13T18:54:20.352Z,83.70
2019-03-13T18:56:47.419Z,83.80
2019-03-13T18:59:14.458Z,83.50
2019-03-13T19:01:41.586Z,83.40
2019-03-13T19:04:08.667Z,84.10
2019-03-13T19:06:35.640Z,84.60
2019-03-13T19:09:03.898Z,83.20
2019-03-13T19:11:31.061Z,84.10
2019-03-13T19:13:58.370Z,84.30
2019-03-13T19:16:25.505Z,83.30
2019-03-13T19:18:52.431Z,84.10
2019-03-13T19:21:19.441Z,83.70
2019-03-13T19:23:46.679Z,85.00
2019-03-13T19:26:13.748Z,84.90
2019-03-13T19:28:40.723Z,84.90
2019-03-13T19:31:07.777Z,84.70
2019-03-13T19:33:34.729Z,85.00
2019-03-13T19:36:02.008Z,85.00
2019-03-13T19:38:29.069Z,84.80
2019-03-13T19:40:56.117Z,85.30
2019-03-13T19:43:23.127Z,86.10
2019-03-13T19:45:50.125Z,85.80
2019-03-13T19:48:17.170Z,85.70
2019-03-13T19:50:44.566Z,86.10
2019-03-13T19:53:11.543Z,87.10
2019-03-13T19:55:38.698Z,86.40
2019-03-13T19:58:05.892Z,85.50
2019-03-13T20:00:33.035Z,86.00
2019-03-13T20:03:00.959Z,86.40
2019-03-13T20:05:28.266Z,86.40
2019-03-13T20:07:55.448Z,86.90
2019-03-13T20:10:23.388Z,86.30
2019-03-13T20:12:50.471Z,87.30
2019-03-13T20:15:18.807Z,87.20
2019-03-13T20:17:45.858Z,87.50
2019-03-13T20:20:14.179Z,87.60
2019-03-13T20:22:41.448Z,88.00
2019-03-13T20:25:09.597Z,88.20
2019-03-13T20:27:36.632Z,88.00
2019-03-13T20:30:04.047Z,88.10
2019-03-13T20:32:31.238Z,88.60
2019-03-13T20:34:58.434Z,88.50
2019-03-13T20:37:26.055Z,88.20
2019-03-13T20:39:53.209Z,87.70
2019-03-13T20:42:20.551Z,88.50
2019-03-13T20:44:47.690Z,88.50
2019-03-13T20:47:15.003Z,88.40
2019-03-13T20:49:42.115Z,88.70
2019-03-13T20:52:09.216Z,88.70
2019-03-13T20:54:36.481Z,88.80
2019-03-13T20:57:03.571Z,89.10
2019-03-13T20:59:32.596Z,89.20
2019-03-13T21:02:00.431Z,88.70
2019-03-13T21:04:27.808Z,89.10
2019-03-13T21:06:54.901Z,88.90
2019-03-13T21:09:21.902Z,89.70
2019-03-13T21:11:49.944Z,89.20
2019-03-13T21:14:17.275Z,89.60
2019-03-13T21:16:44.396Z,90.00
2019-03-13T21:19:11.527Z,90.00
2019-03-13T21:21:40.094Z,90.20
2019-03-13T21:24:07.173Z,90.30
2019-03-13T21:26:34.255Z,90.20
2019-03-13T21:29:01.303Z,90.30
2019-03-13T21:31:28.357Z,90.60
2019-03-13T21:33:55.414Z,90.50
2019-03-13T21:36:22.595Z,90.70
2019-03-13T21:38:50.725Z,90.60
2019-03-13T21:41:18.277Z,90.70
2019-03-13T21:43:46.396Z,91.50
2019-03-13T21:46:16.464Z,91.60
2019-03-13T21:48:49.578Z,91.90
2019-03-13T21:51:28.785Z,91.60
2019-03-13T21:54:08.033Z,91.60
2019-03-13T21:56:44.097Z,91.90
2019-03-13T21:59:26.865Z,91.40
2019-03-13T22:01:57.967Z,91.30
2019-03-13T22:04:33.827Z,91.00
2019-03-13T22:07:05.195Z,91.30
2019-03-13T22:09:32.821Z,91.00
2019-03-13T22:12:05.484Z,91.40
2019-03-13T22:14:47.189Z,91.40
2019-03-13T22:17:24.961Z,91.40
2019-03-13T22:19:51.940Z,91.40
2019-03-13T22:22:18.967Z,91.50
2019-03-13T22:24:46.139Z,91.40
2019-03-13T22:27:14.830Z,91.60
2019-03-13T22:29:42.054Z,91.50
2019-03-13T22:32:09.044Z,91.50
2019-03-13T22:34:36.288Z,91.50
2019-03-13T22:37:03.435Z,91.40
2019-03-13T22:39:30.599Z,91.50
2019-03-13T22:41:58.546Z,91.40
2019-03-13T22:44:26.033Z,91.20
2019-03-13T22:46:55.332Z,91.20
2019-03-13T22:49:22.336Z,91.30
2019-03-13T22:51:49.564Z,91.40
2019-03-13T22:54:16.737Z,90.90
2019-03-13T22:56:43.753Z,90.60
2019-03-13T22:59:10.761Z,90.10
2019-03-13T23:01:39.133Z,90.60
2019-03-13T23:04:06.800Z,90.60
2019-03-13T23:06:34.006Z,90.60
2019-03-13T23:09:01.054Z,90.50
2019-03-13T23:11:28.101Z,90.10
2019-03-13T23:13:55.016Z,89.30
2019-03-13T23:16:23.927Z,89.90
2019-03-13T23:18:50.757Z,89.00
2019-03-13T23:21:18.023Z,88.90
2019-03-13T23:23:45.018Z,89.40
2019-03-13T23:26:12.113Z,89.30
2019-03-13T23:28:39.149Z,89.40
2019-03-13T23:31:06.159Z,89.00
2019-03-13T23:33:33.166Z,89.60
2019-03-13T23:36:00.375Z,89.70
2019-03-13T23:38:27.470Z,89.60
2019-03-13T23:40:54.460Z,89.40
2019-03-13T23:43:21.485Z,90.00
2019-03-13T23:45:48.545Z,89.20
2019-03-13T23:48:15.533Z,89.40
2019-03-13T23:50:42.600Z,89.70
2019-03-13T23:53:09.643Z,90.40
2019-03-13T23:55:36.521Z,90.10
2019-03-13T23:58:04.259Z,90.20
